Time;durP1;ratioP1;P1;durP2;ratioP2;P2;SDS_P1;SDS_P2;PMS_P1;PMS_P2;Temp;Humidity;BMP_temperature;BMP_pressure;BME280_temperature;BME280_humidity;BME280_pressure;Samples;Min_cycle;Max_cycle;Signal;HPM_P1;HPM_P2
2023/06/15 00:00:50;;;;;;;26.33;3.10;;;;;;;;;;5050225;28;20040;-42
2023/06/15 00:03:17;;;;;;;21.95;2.75;;;;;;;;;;5052855;28;20106;-43
2023/06/15 00:05:44;;;;;;;24.30;2.95;;;;;;;;;;5052667;28;20029;-41
2023/06/15 00:08:11;;;;;;;24.58;3.05;;;;;;;;;;5052705;28;20028;-41
2023/06/15 00:10:38;;;;;;;27.58;3.17;;;;;;;;;;5040150;28;20033;-40
2023/06/15 00:13:05;;;;;;;24.48;3.05;;;;;;;;;;5032840;28;20057;-40
2023/06/15 00:15:32;;;;;;;19.40;2.83;;;;;;;;;;5046200;28;20029;-41
2023/06/15 00:17:59;;;;;;;18.63;3.20;;;;;;;;;;5036322;28;20055;-41
2023/06/15 00:20:28;;;;;;;21.70;3.58;;;;;;;;;;5042199;28;20092;-41
2023/06/15 00:22:56;;;;;;;20.50;3.80;;;;;;;;;;5036971;28;20060;-41
2023/06/15 00:25:23;;;;;;;17.88;4.57;;;;;;;;;;5052766;28;20032;-41
2023/06/15 00:27:50;;;;;;;28.58;4.85;;;;;;;;;;5052475;28;20067;-41
2023/06/15 00:30:17;;;;;;;30.58;5.55;;;;;;;;;;5052747;28;20021;-41
2023/06/15 00:32:45;;;;;;;30.80;5.10;;;;;;;;;;5052487;28;20032;-41
2023/06/15 00:35:12;;;;;;;32.88;4.90;;;;;;;;;;5052391;28;20080;-41
2023/06/15 00:37:39;;;;;;;17.00;3.83;;;;;;;;;;5052446;28;20242;-41
2023/06/15 00:40:06;;;;;;;29.35;5.13;;;;;;;;;;5051368;28;20032;-41
2023/06/15 00:42:33;;;;;;;17.67;3.90;;;;;;;;;;5039978;28;20482;-41
2023/06/15 00:45:01;;;;;;;21.65;4.68;;;;;;;;;;5052270;28;20117;-41
2023/06/15 00:47:28;;;;;;;20.20;4.28;;;;;;;;;;5052363;28;20029;-40
2023/06/15 00:49:55;;;;;;;20.60;4.75;;;;;;;;;;5052164;28;20413;-40
2023/06/15 00:52:23;;;;;;;18.52;3.70;;;;;;;;;;5052204;28;20028;-41
2023/06/15 00:54:50;;;;;;;19.88;4.25;;;;;;;;;;5041531;28;20048;-41
2023/06/15 00:57:18;;;;;;;22.67;4.03;;;;;;;;;;5032016;28;20030;-40
2023/06/15 00:59:45;;;;;;;19.02;3.70;;;;;;;;;;5031934;28;20063;-41
2023/06/15 01:02:14;;;;;;;23.00;4.72;;;;;;;;;;5031963;28;20076;-40
2023/06/15 01:04:41;;;;;;;15.48;3.70;;;;;;;;;;5030630;28;20098;-40
2023/06/15 01:07:10;;;;;;;15.50;3.30;;;;;;;;;;5049113;28;20086;-40
2023/06/15 01:09:39;;;;;;;19.70;4.50;;;;;;;;;;5051775;28;20040;-40
2023/06/15 01:12:11;;;;;;;30.40;4.43;;;;;;;;;;5039651;28;20018;-45
2023/06/15 01:14:39;;;;;;;19.52;3.40;;;;;;;;;;5050908;28;20451;-46
2023/06/15 01:17:09;;;;;;;19.05;3.10;;;;;;;;;;5043053;28;20119;-46
2023/06/15 01:19:54;;;;;;;20.25;3.58;;;;;;;;;;5050752;28;20374;-42
2023/06/15 01:22:29;;;;;;;17.67;3.55;;;;;;;;;;5050905;28;20055;-41
2023/06/15 01:25:12;;;;;;;21.02;3.47;;;;;;;;;;5051798;28;20473;-41
2023/06/15 01:27:39;;;;;;;18.70;3.97;;;;;;;;;;5051361;28;20044;-40
2023/06/15 01:30:08;;;;;;;22.88;3.22;;;;;;;;;;5051196;28;20172;-41
2023/06/15 01:32:35;;;;;;;18.63;3.80;;;;;;;;;;5033566;28;20712;-40
2023/06/15 01:35:02;;;;;;;16.08;3.60;;;;;;;;;;5051148;28;20052;-40
2023/06/15 01:37:29;;;;;;;20.30;3.30;;;;;;;;;;5050458;28;20032;-40
2023/06/15 01:39:57;;;;;;;12.27;2.72;;;;;;;;;;5050304;28;20025;-41
2023/06/15 01:42:24;;;;;;;18.60;3.47;;;;;;;;;;5050630;28;20364;-40
2023/06/15 01:44:53;;;;;;;14.90;3.55;;;;;;;;;;5050635;28;20115;-40
2023/06/15 01:47:20;;;;;;;17.65;3.28;;;;;;;;;;5050904;28;20040;-40
2023/06/15 01:49:47;;;;;;;18.33;3.15;;;;;;;;;;5050911;28;20029;-40
2023/06/15 01:52:15;;;;;;;14.45;3.00;;;;;;;;;;5048430;28;20017;-40
2023/06/15 01:54:42;;;;;;;13.75;2.78;;;;;;;;;;5032412;28;20418;-40
2023/06/15 01:57:10;;;;;;;17.15;3.00;;;;;;;;;;5050849;28;20029;-41
2023/06/15 01:59:37;;;;;;;16.45;2.60;;;;;;;;;;5050661;28;20087;-40
2023/06/15 02:02:04;;;;;;;19.23;2.80;;;;;;;;;;5050610;28;20060;-40
2023/06/15 02:04:31;;;;;;;14.30;2.83;;;;;;;;;;5050540;28;20029;-40
2023/06/15 02:06:59;;;;;;;8.60;2.65;;;;;;;;;;5051162;28;20462;-40
2023/06/15 02:09:27;;;;;;;13.02;2.45;;;;;;;;;;5050455;28;20037;-40
2023/06/15 02:11:54;;;;;;;10.93;2.70;;;;;;;;;;5050535;28;20706;-40
2023/06/15 02:14:23;;;;;;;16.05;2.95;;;;;;;;;;5050870;28;20039;-40
2023/06/15 02:16:50;;;;;;;12.43;2.40;;;;;;;;;;5050710;28;20566;-40
2023/06/15 02:19:21;;;;;;;9.93;2.40;;;;;;;;;;5050718;28;20029;-41
2023/06/15 02:21:48;;;;;;;13.60;2.78;;;;;;;;;;5050628;28;20040;-40
2023/06/15 02:24:16;;;;;;;9.27;2.38;;;;;;;;;;5051095;28;20044;-41
2023/06/15 02:26:44;;;;;;;14.95;2.80;;;;;;;;;;5051153;28;20398;-41
2023/06/15 02:29:11;;;;;;;11.60;2.50;;;;;;;;;;5051106;28;20068;-41
2023/06/15 02:31:38;;;;;;;8.68;2.30;;;;;;;;;;5051229;28;20083;-40
2023/06/15 02:34:05;;;;;;;13.32;2.92;;;;;;;;;;5051295;28;20075;-40
2023/06/15 02:36:34;;;;;;;9.38;2.58;;;;;;;;;;5031832;28;20042;-41
2023/06/15 02:39:02;;;;;;;10.55;2.30;;;;;;;;;;5031220;28;20143;-40
2023/06/15 02:41:29;;;;;;;13.50;2.38;;;;;;;;;;5031243;28;20501;-40
2023/06/15 02:43:57;;;;;;;9.93;2.05;;;;;;;;;;5031199;28;20045;-41
2023/06/15 02:46:24;;;;;;;8.15;2.03;;;;;;;;;;5031247;28;20104;-41
2023/06/15 02:48:51;;;;;;;7.25;2.15;;;;;;;;;;5031021;28;20079;-40
2023/06/15 02:51:19;;;;;;;11.35;1.88;;;;;;;;;;5031133;28;20033;-40
2023/06/15 02:53:47;;;;;;;10.25;1.90;;;;;;;;;;5031230;28;20033;-41
2023/06/15 02:56:18;;;;;;;8.73;1.88;;;;;;;;;;5031182;28;20025;-40
2023/06/15 02:58:47;;;;;;;9.65;2.20;;;;;;;;;;5030942;28;20522;-40
2023/06/15 03:01:16;;;;;;;10.25;2.10;;;;;;;;;;5031173;28;20045;-41
2023/06/15 03:03:43;;;;;;;6.32;2.00;;;;;;;;;;5030946;28;20044;-40
2023/06/15 03:06:11;;;;;;;9.13;2.30;;;;;;;;;;5032347;28;20396;-40
2023/06/15 03:08:38;;;;;;;5.72;1.90;;;;;;;;;;5034577;28;20026;-40
2023/06/15 03:11:06;;;;;;;9.50;2.17;;;;;;;;;;5034640;28;20034;-40
2023/06/15 03:13:33;;;;;;;10.27;2.45;;;;;;;;;;5034528;28;20479;-40
2023/06/15 03:16:06;;;;;;;10.52;2.33;;;;;;;;;;5034607;28;20087;-40
2023/06/15 03:18:34;;;;;;;8.20;2.08;;;;;;;;;;5034216;28;20037;-40
2023/06/15 03:21:01;;;;;;;5.75;1.80;;;;;;;;;;5034319;28;20386;-40
2023/06/15 03:23:28;;;;;;;8.10;2.00;;;;;;;;;;5034357;28;20033;-41
2023/06/15 03:25:55;;;;;;;10.77;2.15;;;;;;;;;;5034333;28;20471;-41
2023/06/15 03:28:27;;;;;;;6.80;1.73;;;;;;;;;;5034289;28;20029;-40
2023/06/15 03:30:56;;;;;;;7.15;1.88;;;;;;;;;;5034001;28;20068;-40
2023/06/15 03:33:24;;;;;;;7.03;1.70;;;;;;;;;;5034038;28;20040;-41
2023/06/15 03:35:53;;;;;;;5.85;1.63;;;;;;;;;;5033975;28;20521;-40
2023/06/15 03:38:20;;;;;;;7.70;1.65;;;;;;;;;;5033922;28;20103;-40
2023/06/15 03:40:47;;;;;;;7.60;1.80;;;;;;;;;;5033877;28;20132;-40
2023/06/15 03:43:14;;;;;;;9.27;2.15;;;;;;;;;;5033953;28;20041;-40
2023/06/15 03:45:41;;;;;;;6.13;1.88;;;;;;;;;;5033900;28;20032;-40
2023/06/15 03:48:08;;;;;;;7.38;1.52;;;;;;;;;;5033894;28;20030;-40
2023/06/15 03:50:35;;;;;;;6.18;1.70;;;;;;;;;;5033744;28;20025;-41
2023/06/15 03:53:02;;;;;;;9.82;2.25;;;;;;;;;;5033692;28;20380;-40
2023/06/15 03:55:29;;;;;;;7.07;2.13;;;;;;;;;;5033741;28;20029;-40
2023/06/15 03:57:56;;;;;;;6.20;2.10;;;;;;;;;;5033597;28;20419;-40
2023/06/15 04:00:23;;;;;;;6.22;2.30;;;;;;;;;;5033509;28;20033;-41
2023/06/15 04:02:50;;;;;;;9.55;2.35;;;;;;;;;;5033594;28;20040;-41
2023/06/15 04:05:19;;;;;;;7.68;2.28;;;;;;;;;;5033599;28;20026;-42
2023/06/15 04:07:46;;;;;;;7.00;2.40;;;;;;;;;;5033566;28;20025;-40
2023/06/15 04:10:13;;;;;;;7.00;2.40;;;;;;;;;;5033412;28;20071;-40
2023/06/15 04:12:40;;;;;;;8.35;1.92;;;;;;;;;;5033450;28;20059;-41
2023/06/15 04:15:07;;;;;;;5.70;2.03;;;;;;;;;;5033421;28;20021;-40
2023/06/15 04:17:35;;;;;;;10.27;2.22;;;;;;;;;;5032946;28;20060;-40
2023/06/15 04:20:05;;;;;;;5.78;1.95;;;;;;;;;;5033011;28;20037;-40
2023/06/15 04:22:31;;;;;;;9.48;2.65;;;;;;;;;;5033408;28;20040;-40
2023/06/15 04:24:59;;;;;;;10.43;2.45;;;;;;;;;;5033239;28;20029;-40
2023/06/15 04:27:27;;;;;;;6.88;1.88;;;;;;;;;;5033109;28;20482;-41
2023/06/15 04:29:55;;;;;;;7.38;2.20;;;;;;;;;;5033009;28;20033;-40
2023/06/15 04:32:25;;;;;;;11.35;2.50;;;;;;;;;;5033073;28;20390;-40
2023/06/15 04:34:54;;;;;;;8.25;2.40;;;;;;;;;;5032769;28;20041;-40
2023/06/15 04:37:23;;;;;;;5.50;1.95;;;;;;;;;;5032769;28;20059;-40
2023/06/15 04:39:50;;;;;;;7.05;2.40;;;;;;;;;;5032961;28;20037;-40
2023/06/15 04:42:21;;;;;;;7.70;2.22;;;;;;;;;;5032786;28;20454;-41
2023/06/15 04:44:48;;;;;;;7.55;2.10;;;;;;;;;;5032717;28;20065;-41
2023/06/15 04:47:15;;;;;;;11.20;2.28;;;;;;;;;;5032765;28;20065;-40
2023/06/15 04:49:42;;;;;;;6.72;2.17;;;;;;;;;;5032637;28;20075;-40
2023/06/15 04:52:10;;;;;;;5.57;1.90;;;;;;;;;;5032765;28;20025;-40
2023/06/15 04:54:37;;;;;;;7.10;2.00;;;;;;;;;;5032671;28;20038;-41
2023/06/15 04:57:04;;;;;;;8.70;2.10;;;;;;;;;;5032550;28;20032;-41
2023/06/15 04:59:31;;;;;;;5.82;2.08;;;;;;;;;;5032458;28;20030;-41
2023/06/15 05:01:58;;;;;;;5.95;1.75;;;;;;;;;;5032429;28;20031;-41
2023/06/15 05:04:26;;;;;;;6.38;1.90;;;;;;;;;;5032512;28;20025;-40
2023/06/15 05:06:53;;;;;;;6.45;1.85;;;;;;;;;;5032359;28;20029;-40
2023/06/15 05:09:20;;;;;;;5.82;2.25;;;;;;;;;;5032194;28;20022;-41
2023/06/15 05:11:46;;;;;;;9.10;2.20;;;;;;;;;;5032224;28;20033;-41
2023/06/15 05:14:14;;;;;;;6.80;1.90;;;;;;;;;;5032204;28;20032;-41
2023/06/15 05:16:41;;;;;;;9.07;2.03;;;;;;;;;;5032222;28;20499;-41
2023/06/15 05:19:08;;;;;;;5.70;2.05;;;;;;;;;;5032108;28;20056;-40
2023/06/15 05:21:35;;;;;;;6.97;1.88;;;;;;;;;;5014270;28;20041;-40
2023/06/15 05:24:02;;;;;;;9.48;2.58;;;;;;;;;;5032083;28;20510;-40
2023/06/15 05:26:29;;;;;;;7.32;1.85;;;;;;;;;;5032037;28;20102;-40
2023/06/15 05:28:56;;;;;;;4.82;1.90;;;;;;;;;;5031080;28;20033;-40
2023/06/15 05:31:23;;;;;;;10.13;1.80;;;;;;;;;;5031997;28;20037;-40
2023/06/15 05:33:50;;;;;;;4.65;1.95;;;;;;;;;;5031888;28;20033;-40
2023/06/15 05:36:16;;;;;;;6.03;2.20;;;;;;;;;;5031775;28;20064;-40
2023/06/15 05:38:43;;;;;;;7.57;1.83;;;;;;;;;;5031727;28;20044;-40
2023/06/15 05:41:10;;;;;;;5.32;2.05;;;;;;;;;;5031771;28;20036;-40
2023/06/15 05:43:37;;;;;;;7.55;1.98;;;;;;;;;;5031883;28;20096;-40
2023/06/15 05:46:05;;;;;;;5.72;1.70;;;;;;;;;;5031776;28;20542;-40
2023/06/15 05:48:32;;;;;;;7.43;1.73;;;;;;;;;;5031495;28;20037;-40
2023/06/15 05:50:59;;;;;;;5.88;1.60;;;;;;;;;;5031708;28;20037;-40
2023/06/15 05:53:26;;;;;;;6.40;1.85;;;;;;;;;;5031749;28;20037;-40
2023/06/15 05:55:53;;;;;;;5.18;1.70;;;;;;;;;;5031672;28;20033;-40
2023/06/15 05:58:20;;;;;;;7.65;2.03;;;;;;;;;;5031660;28;20476;-40
2023/06/15 06:00:47;;;;;;;8.85;1.92;;;;;;;;;;5030379;28;20033;-41
2023/06/15 06:03:14;;;;;;;4.43;1.65;;;;;;;;;;5031380;28;20037;-40
2023/06/15 06:05:41;;;;;;;7.13;1.70;;;;;;;;;;5031616;28;20021;-40
2023/06/15 06:08:08;;;;;;;4.05;1.70;;;;;;;;;;5031558;28;20025;-40
2023/06/15 06:10:35;;;;;;;4.05;1.77;;;;;;;;;;5031545;28;20040;-40
2023/06/15 06:13:02;;;;;;;6.22;1.95;;;;;;;;;;5031558;28;20049;-40
2023/06/15 06:15:29;;;;;;;4.85;1.60;;;;;;;;;;5031496;28;20021;-40
2023/06/15 06:17:56;;;;;;;4.82;1.20;;;;;;;;;;5031547;28;20022;-40
2023/06/15 06:20:23;;;;;;;7.78;2.13;;;;;;;;;;5031231;28;20026;-40
2023/06/15 06:22:50;;;;;;;4.78;1.60;;;;;;;;;;5031478;28;20028;-40
2023/06/15 06:25:17;;;;;;;4.20;1.42;;;;;;;;;;5031351;28;20034;-40
2023/06/15 06:27:45;;;;;;;7.18;1.63;;;;;;;;;;5031368;28;20029;-40
2023/06/15 06:30:12;;;;;;;6.60;1.50;;;;;;;;;;5031330;28;20021;-40
2023/06/15 06:32:39;;;;;;;6.43;1.77;;;;;;;;;;5193398;22;20107;-45
2023/06/15 06:35:06;;;;;;;6.45;2.13;;;;;;;;;;5051197;28;20031;-46
2023/06/15 06:37:33;;;;;;;4.70;1.88;;;;;;;;;;5051188;28;20026;-45
2023/06/15 06:40:00;;;;;;;3.90;1.63;;;;;;;;;;5052280;28;20025;-45
2023/06/15 06:42:27;;;;;;;7.53;1.77;;;;;;;;;;5054812;28;20033;-45
2023/06/15 06:44:54;;;;;;;4.03;1.55;;;;;;;;;;5055002;28;20018;-45
2023/06/15 06:47:21;;;;;;;6.28;2.00;;;;;;;;;;5054931;28;20033;-45
2023/06/15 06:49:48;;;;;;;7.05;1.92;;;;;;;;;;5054838;28;20083;-45
2023/06/15 06:52:15;;;;;;;3.83;1.45;;;;;;;;;;5054685;28;20486;-45
2023/06/15 06:54:42;;;;;;;6.72;1.40;;;;;;;;;;5054742;28;20052;-45
2023/06/15 06:57:09;;;;;;;4.45;1.60;;;;;;;;;;5054744;28;20021;-46
2023/06/15 06:59:36;;;;;;;2.90;1.38;;;;;;;;;;5054672;28;20029;-45
2023/06/15 07:02:03;;;;;;;4.95;1.65;;;;;;;;;;5054429;28;20104;-45
2023/06/15 07:04:30;;;;;;;5.18;1.65;;;;;;;;;;5036548;28;20108;-45
2023/06/15 07:06:57;;;;;;;3.20;1.40;;;;;;;;;;5054336;28;20051;-46
2023/06/15 07:09:24;;;;;;;7.57;2.38;;;;;;;;;;5054493;28;20104;-45
2023/06/15 07:11:51;;;;;;;6.22;1.90;;;;;;;;;;5054169;28;20044;-45
2023/06/15 07:14:20;;;;;;;4.72;1.65;;;;;;;;;;5054272;28;20029;-46
2023/06/15 07:16:47;;;;;;;3.80;1.50;;;;;;;;;;5054391;28;20394;-45
2023/06/15 07:19:14;;;;;;;3.08;1.38;;;;;;;;;;5054348;28;20100;-45
2023/06/15 07:21:42;;;;;;;5.68;1.45;;;;;;;;;;5054147;28;20061;-45
2023/06/15 07:24:08;;;;;;;5.57;1.60;;;;;;;;;;5054213;28;20100;-45
2023/06/15 07:26:35;;;;;;;5.70;1.48;;;;;;;;;;5054177;28;20024;-47
2023/06/15 07:29:02;;;;;;;2.90;1.30;;;;;;;;;;5054130;28;20131;-45
2023/06/15 07:31:30;;;;;;;3.13;1.25;;;;;;;;;;5053931;28;20096;-45
2023/06/15 07:33:57;;;;;;;3.92;1.50;;;;;;;;;;5054097;28;20474;-45
2023/06/15 07:36:24;;;;;;;3.40;1.65;;;;;;;;;;5054013;28;20067;-46
2023/06/15 07:38:53;;;;;;;4.22;1.85;;;;;;;;;;5035932;28;20402;-45
2023/06/15 07:41:21;;;;;;;5.10;1.45;;;;;;;;;;5053597;28;20055;-45
2023/06/15 07:43:48;;;;;;;4.80;1.50;;;;;;;;;;5053907;28;20048;-46
2023/06/15 07:46:15;;;;;;;3.88;1.50;;;;;;;;;;5053534;28;20418;-46
2023/06/15 07:48:42;;;;;;;6.45;1.40;;;;;;;;;;5053735;28;20035;-46
2023/06/15 07:51:09;;;;;;;5.05;1.63;;;;;;;;;;5053006;28;20079;-46
2023/06/15 07:53:35;;;;;;;4.07;1.63;;;;;;;;;;5053508;28;20458;-47
2023/06/15 07:56:02;;;;;;;4.00;1.48;;;;;;;;;;5053628;28;20029;-45
2023/06/15 07:58:29;;;;;;;4.10;1.38;;;;;;;;;;5053288;28;20431;-46
2023/06/15 08:00:56;;;;;;;5.20;1.50;;;;;;;;;;5053550;28;20040;-45
2023/06/15 08:03:23;;;;;;;3.83;1.70;;;;;;;;;;5053464;28;20021;-46
2023/06/15 08:05:50;;;;;;;3.88;1.70;;;;;;;;;;5053442;28;20556;-45
2023/06/15 08:08:17;;;;;;;2.78;1.25;;;;;;;;;;5053211;28;20029;-45
2023/06/15 08:10:44;;;;;;;4.93;1.83;;;;;;;;;;5053311;28;20091;-46
2023/06/15 08:13:11;;;;;;;4.88;1.20;;;;;;;;;;5053268;28;20025;-45
2023/06/15 08:15:38;;;;;;;4.30;1.30;;;;;;;;;;5053266;28;20089;-45
2023/06/15 08:18:05;;;;;;;2.92;1.40;;;;;;;;;;5053038;28;20074;-45
2023/06/15 08:20:32;;;;;;;4.90;1.50;;;;;;;;;;5035043;28;20037;-45
2023/06/15 08:22:59;;;;;;;4.65;1.40;;;;;;;;;;5052791;28;20029;-45
2023/06/15 08:25:26;;;;;;;5.57;1.92;;;;;;;;;;5052946;28;20470;-47
2023/06/15 08:27:54;;;;;;;3.45;1.23;;;;;;;;;;5053030;28;20557;-45
2023/06/15 08:30:21;;;;;;;4.28;1.60;;;;;;;;;;5053013;28;20413;-45
2023/06/15 08:32:48;;;;;;;5.13;1.40;;;;;;;;;;5052757;28;20048;-46
2023/06/15 08:35:15;;;;;;;4.00;1.50;;;;;;;;;;5052878;28;20454;-45
2023/06/15 08:37:42;;;;;;;4.03;1.52;;;;;;;;;;5052683;28;20029;-45
2023/06/15 08:40:09;;;;;;;6.38;1.67;;;;;;;;;;5052655;28;20471;-45
2023/06/15 08:42:36;;;;;;;6.45;1.58;;;;;;;;;;5052695;28;20072;-45
2023/06/15 08:45:07;;;;;;;5.45;1.42;;;;;;;;;;5052660;28;20386;-45
2023/06/15 08:47:35;;;;;;;4.18;1.50;;;;;;;;;;5052651;28;20013;-45
2023/06/15 08:50:03;;;;;;;2.65;1.40;;;;;;;;;;5052390;28;20493;-45
2023/06/15 08:52:32;;;;;;;2.50;1.30;;;;;;;;;;5052327;28;20033;-45
2023/06/15 08:55:01;;;;;;;3.17;1.38;;;;;;;;;;5052538;28;20032;-45
2023/06/15 08:57:28;;;;;;;4.78;1.38;;;;;;;;;;5052223;28;20033;-45
2023/06/15 08:59:56;;;;;;;3.65;1.40;;;;;;;;;;5052405;28;20021;-46
2023/06/15 09:02:23;;;;;;;4.85;1.63;;;;;;;;;;5052166;28;20041;-47
2023/06/15 09:04:51;;;;;;;2.78;1.40;;;;;;;;;;5034374;28;20040;-46
2023/06/15 09:07:21;;;;;;;7.22;1.50;;;;;;;;;;5051908;28;20033;-44
2023/06/15 09:10:15;;;;;;;3.55;1.30;;;;;;;;;;5052256;28;20036;-46
2023/06/15 09:12:46;;;;;;;3.95;1.83;;;;;;;;;;5029048;28;20041;-44
2023/06/15 09:15:18;;;;;;;6.18;1.55;;;;;;;;;;5040981;28;20029;-45
2023/06/15 09:17:46;;;;;;;5.65;1.50;;;;;;;;;;5014375;28;20430;-45
2023/06/15 09:20:14;;;;;;;3.38;1.55;;;;;;;;;;5036974;28;20025;-47
2023/06/15 09:22:45;;;;;;;4.82;1.40;;;;;;;;;;5032008;28;20029;-44
2023/06/15 09:25:22;;;;;;;15.00;6.53;;;;;;;;;;5031880;28;20029;-43
2023/06/15 09:28:03;;;;;;;64.20;33.17;;;;;;;;;;5031768;28;20112;-43
2023/06/15 09:30:34;;;;;;;164.27;89.00;;;;;;;;;;5041273;28;20031;-45
2023/06/15 09:33:10;;;;;;;260.35;139.30;;;;;;;;;;5051502;28;20049;-46
2023/06/15 09:35:37;;;;;;;337.67;188.45;;;;;;;;;;5043459;28;20083;-45
2023/06/15 09:38:10;;;;;;;371.98;217.00;;;;;;;;;;5031665;28;20052;-45
2023/06/15 09:40:41;;;;;;;422.58;250.82;;;;;;;;;;5044745;28;20470;-46
2023/06/15 09:43:12;;;;;;;415.10;242.82;;;;;;;;;;5051597;28;20043;-44
2023/06/15 09:45:49;;;;;;;389.30;234.73;;;;;;;;;;5051135;28;20043;-45
2023/06/15 09:48:16;;;;;;;408.05;247.48;;;;;;;;;;5036453;28;20029;-47
2023/06/15 09:50:43;;;;;;;414.15;252.25;;;;;;;;;;5031451;28;20025;-47
2023/06/15 09:53:13;;;;;;;426.10;261.48;;;;;;;;;;5031023;28;20029;-49
2023/06/15 09:55:43;;;;;;;412.42;255.60;;;;;;;;;;5031584;28;20021;-45
2023/06/15 09:58:13;;;;;;;422.98;262.08;;;;;;;;;;5031554;28;20061;-48
2023/06/15 10:00:41;;;;;;;414.27;252.63;;;;;;;;;;5031553;28;20052;-47
2023/06/15 10:03:09;;;;;;;412.40;255.15;;;;;;;;;;5031335;28;20038;-47
2023/06/15 10:05:43;;;;;;;392.77;242.88;;;;;;;;;;5031588;28;20053;-47
2023/06/15 10:08:14;;;;;;;387.42;243.90;;;;;;;;;;5031425;28;20033;-47
2023/06/15 10:10:43;;;;;;;370.10;229.13;;;;;;;;;;5035009;28;20041;-57
2023/06/15 10:13:13;;;;;;;358.13;221.50;;;;;;;;;;5034575;28;20029;-49
2023/06/15 10:15:41;;;;;;;321.02;191.02;;;;;;;;;;5026086;28;20020;-46
2023/06/15 10:18:10;;;;;;;289.25;168.05;;;;;;;;;;5055295;28;20025;-45
2023/06/15 10:20:37;;;;;;;279.50;157.90;;;;;;;;;;5046219;28;20387;-43
2023/06/15 10:23:07;;;;;;;245.57;145.90;;;;;;;;;;5033033;28;20029;-44
2023/06/15 10:25:35;;;;;;;233.10;137.27;;;;;;;;;;5034917;28;20424;-46
2023/06/15 10:28:09;;;;;;;228.95;137.13;;;;;;;;;;5034768;28;20371;-47
2023/06/15 10:30:43;;;;;;;220.82;129.13;;;;;;;;;;5034631;28;20426;-46
2023/06/15 10:33:42;;;;;;;223.43;126.07;;;;;;;;;;5033068;28;20053;-46
2023/06/15 10:36:19;;;;;;;194.98;111.55;;;;;;;;;;4980857;28;20037;-46
2023/06/15 10:38:50;;;;;;;181.02;110.85;;;;;;;;;;5035041;28;20021;-46
2023/06/15 10:41:17;;;;;;;175.48;106.60;;;;;;;;;;5034568;28;20499;-45
2023/06/15 10:44:07;;;;;;;172.40;104.25;;;;;;;;;;5032518;28;20790;-46
2023/06/15 10:46:35;;;;;;;171.45;101.78;;;;;;;;;;5034875;28;20076;-46
2023/06/15 10:49:06;;;;;;;159.93;95.18;;;;;;;;;;5034802;28;20046;-46
2023/06/15 10:51:36;;;;;;;151.57;90.93;;;;;;;;;;5034475;28;20036;-47
2023/06/15 10:54:04;;;;;;;147.75;88.50;;;;;;;;;;5033224;28;20146;-49
2023/06/15 10:56:31;;;;;;;149.77;90.35;;;;;;;;;;5033697;28;20099;-45
2023/06/15 10:58:59;;;;;;;141.38;85.70;;;;;;;;;;5034343;28;20028;-46
2023/06/15 11:01:27;;;;;;;135.40;82.45;;;;;;;;;;5016661;28;20034;-46
2023/06/15 11:03:55;;;;;;;130.60;78.78;;;;;;;;;;5045130;28;20029;-46
2023/06/15 11:06:24;;;;;;;122.78;75.35;;;;;;;;;;5052890;28;20021;-44
2023/06/15 11:08:54;;;;;;;120.30;73.43;;;;;;;;;;5052162;28;20425;-47
2023/06/15 11:11:30;;;;;;;118.18;72.80;;;;;;;;;;5049868;28;20104;-46
2023/06/15 11:14:05;;;;;;;116.10;70.15;;;;;;;;;;5053535;28;20033;-45
2023/06/15 11:16:34;;;;;;;113.30;69.63;;;;;;;;;;5034412;28;20116;-46
2023/06/15 11:19:13;;;;;;;110.88;67.28;;;;;;;;;;5054098;28;20059;-45
2023/06/15 11:21:41;;;;;;;108.63;65.32;;;;;;;;;;5045351;28;20045;-43
2023/06/15 11:24:13;;;;;;;106.47;64.43;;;;;;;;;;5048505;28;20043;-44
2023/06/15 11:26:44;;;;;;;114.25;64.03;;;;;;;;;;5051049;28;20048;-43
2023/06/15 11:29:15;;;;;;;102.63;62.67;;;;;;;;;;5053887;28;20552;-44
2023/06/15 11:31:43;;;;;;;95.25;58.08;;;;;;;;;;5053496;28;20132;-44
2023/06/15 11:34:10;;;;;;;96.35;58.40;;;;;;;;;;5053562;28;20021;-44
2023/06/15 11:36:38;;;;;;;92.22;57.22;;;;;;;;;;5052862;28;20032;-43
2023/06/15 11:39:05;;;;;;;91.45;55.60;;;;;;;;;;5052892;28;20032;-43
2023/06/15 11:41:32;;;;;;;91.15;52.05;;;;;;;;;;5052203;28;20095;-45
2023/06/15 11:44:00;;;;;;;90.00;54.40;;;;;;;;;;5053405;28;20032;-46
2023/06/15 11:46:27;;;;;;;99.40;54.60;;;;;;;;;;5053699;28;20113;-46
2023/06/15 11:48:58;;;;;;;100.25;54.35;;;;;;;;;;5052018;28;20095;-46
2023/06/15 11:51:25;;;;;;;104.55;55.05;;;;;;;;;;5053498;28;20031;-46
2023/06/15 11:53:53;;;;;;;103.90;54.03;;;;;;;;;;5053150;28;20394;-46
2023/06/15 11:56:21;;;;;;;93.35;50.75;;;;;;;;;;5053287;28;20027;-48
2023/06/15 11:58:49;;;;;;;96.55;49.17;;;;;;;;;;5052163;28;20763;-44
2023/06/15 12:01:17;;;;;;;86.55;49.47;;;;;;;;;;5053464;28;20120;-44
2023/06/15 12:03:45;;;;;;;104.82;52.65;;;;;;;;;;5053397;28;20029;-44
2023/06/15 12:06:16;;;;;;;96.35;48.95;;;;;;;;;;5053340;28;20082;-44
2023/06/15 12:08:45;;;;;;;93.88;47.67;;;;;;;;;;5042873;28;20434;-44
2023/06/15 12:11:12;;;;;;;97.45;48.83;;;;;;;;;;5033348;28;20052;-45
2023/06/15 12:13:40;;;;;;;92.40;46.10;;;;;;;;;;5015437;28;20116;-44
2023/06/15 12:16:07;;;;;;;87.75;44.30;;;;;;;;;;5033313;28;20151;-44
2023/06/15 12:18:34;;;;;;;89.47;44.13;;;;;;;;;;5033113;28;20033;-44
2023/06/15 12:21:05;;;;;;;78.32;41.90;;;;;;;;;;5033036;28;20071;-44
2023/06/15 12:23:33;;;;;;;82.90;40.97;;;;;;;;;;5033040;28;20033;-44
2023/06/15 12:26:03;;;;;;;86.95;43.08;;;;;;;;;;5033147;28;20018;-44
2023/06/15 12:28:33;;;;;;;87.38;41.45;;;;;;;;;;5033073;28;20045;-44
2023/06/15 12:31:07;;;;;;;74.93;40.47;;;;;;;;;;5032969;28;20029;-44
2023/06/15 12:33:38;;;;;;;76.60;38.65;;;;;;;;;;5032748;28;20180;-43
2023/06/15 12:36:10;;;;;;;76.60;39.17;;;;;;;;;;5032733;28;20768;-44
2023/06/15 12:38:37;;;;;;;63.85;37.30;;;;;;;;;;5032442;28;20045;-43
2023/06/15 12:41:04;;;;;;;72.97;37.28;;;;;;;;;;5032724;28;20025;-43
2023/06/15 12:43:31;;;;;;;68.85;36.88;;;;;;;;;;5032791;28;20100;-43
2023/06/15 12:45:59;;;;;;;69.28;35.40;;;;;;;;;;5032754;28;20030;-43
2023/06/15 12:48:26;;;;;;;65.75;34.60;;;;;;;;;;5032600;28;20103;-43
2023/06/15 12:50:53;;;;;;;66.20;35.30;;;;;;;;;;5032521;28;20029;-43
2023/06/15 12:53:23;;;;;;;64.95;35.20;;;;;;;;;;5032649;28;20049;-43
2023/06/15 12:55:50;;;;;;;68.30;33.80;;;;;;;;;;5032556;28;20025;-43
2023/06/15 12:58:17;;;;;;;57.95;31.98;;;;;;;;;;5032540;28;20029;-43
2023/06/15 13:00:44;;;;;;;63.00;32.45;;;;;;;;;;5032101;28;20069;-43
2023/06/15 13:03:11;;;;;;;57.65;32.58;;;;;;;;;;5032424;28;20036;-43
2023/06/15 13:05:41;;;;;;;52.20;31.45;;;;;;;;;;5032176;28;20026;-44
2023/06/15 13:08:08;;;;;;;56.67;30.85;;;;;;;;;;5032231;28;20080;-44
2023/06/15 13:10:36;;;;;;;51.28;30.48;;;;;;;;;;5032570;28;20479;-43
2023/06/15 13:13:03;;;;;;;51.70;28.73;;;;;;;;;;5032115;28;20737;-44
2023/06/15 13:15:30;;;;;;;57.63;30.48;;;;;;;;;;5032254;28;20031;-44
2023/06/15 13:17:57;;;;;;;51.40;28.40;;;;;;;;;;5032165;28;20048;-44
2023/06/15 13:20:24;;;;;;;52.13;27.75;;;;;;;;;;5032014;28;20049;-44
2023/06/15 13:22:52;;;;;;;53.25;28.58;;;;;;;;;;5032056;28;20033;-43
2023/06/15 13:25:20;;;;;;;49.20;26.70;;;;;;;;;;5032098;28;20018;-44
2023/06/15 13:27:47;;;;;;;46.10;25.10;;;;;;;;;;5032103;28;20032;-44
2023/06/15 13:30:15;;;;;;;48.38;26.02;;;;;;;;;;5032022;28;20048;-43
2023/06/15 13:32:43;;;;;;;51.65;25.83;;;;;;;;;;5031757;28;20124;-44
2023/06/15 13:35:11;;;;;;;45.08;25.23;;;;;;;;;;5031797;28;20375;-43
2023/06/15 13:37:38;;;;;;;47.92;24.73;;;;;;;;;;5031942;28;20021;-43
2023/06/15 13:40:06;;;;;;;41.05;23.90;;;;;;;;;;5031716;28;20112;-44
2023/06/15 13:42:42;;;;;;;41.97;23.50;;;;;;;;;;5031456;28;20372;-43
2023/06/15 13:45:10;;;;;;;44.53;23.20;;;;;;;;;;5031834;28;20048;-44
2023/06/15 13:47:38;;;;;;;41.85;24.45;;;;;;;;;;5031816;28;20021;-43
2023/06/15 13:50:06;;;;;;;39.40;22.40;;;;;;;;;;5031104;28;20071;-43
2023/06/15 13:52:34;;;;;;;41.75;23.98;;;;;;;;;;5031576;28;20428;-43
2023/06/15 13:55:02;;;;;;;37.15;21.35;;;;;;;;;;5031738;28;20030;-43
2023/06/15 13:57:29;;;;;;;38.72;21.05;;;;;;;;;;5031509;28;20036;-44
2023/06/15 13:59:56;;;;;;;38.28;20.60;;;;;;;;;;5031494;28;20491;-43
2023/06/15 14:02:23;;;;;;;37.53;19.65;;;;;;;;;;5031476;28;20394;-43
2023/06/15 14:04:52;;;;;;;35.17;20.23;;;;;;;;;;5031655;28;20022;-43
2023/06/15 14:07:19;;;;;;;31.95;19.90;;;;;;;;;;5031454;28;20030;-43
2023/06/15 14:09:46;;;;;;;38.80;19.42;;;;;;;;;;5031560;28;20046;-44
2023/06/15 14:12:13;;;;;;;33.72;20.13;;;;;;;;;;5031404;28;20056;-43
2023/06/15 14:14:40;;;;;;;34.53;19.27;;;;;;;;;;5031334;28;20083;-43
2023/06/15 14:17:08;;;;;;;30.85;18.48;;;;;;;;;;5031499;28;20025;-43
2023/06/15 14:19:37;;;;;;;33.70;18.27;;;;;;;;;;5031232;28;20030;-43
2023/06/15 14:22:04;;;;;;;28.95;17.13;;;;;;;;;;5031110;28;20044;-43
2023/06/15 14:24:31;;;;;;;30.77;17.67;;;;;;;;;;5031445;28;20535;-43
2023/06/15 14:26:58;;;;;;;31.85;17.83;;;;;;;;;;5013503;28;20395;-44
2023/06/15 14:29:25;;;;;;;27.83;16.50;;;;;;;;;;5031436;28;20785;-43
2023/06/15 14:31:52;;;;;;;31.77;16.17;;;;;;;;;;5031059;28;20605;-43
2023/06/15 14:34:20;;;;;;;28.02;15.77;;;;;;;;;;5031346;28;20536;-43